Chelyuskin, Russia
Current Conditions -  °F | °C
As of 3:50 AM on Saturday 25 Oct 2014 (Local Time) from ENSB Reporting Station
Broken Clouds Broken Clouds  
Wind Chill: 31°   Ceiling: 8000
Heat Index: 41°   Visibility: 6mi
Dew Point: 32°   Wind: 24mph
Humidity: 70%   Direction: 140°SE
Pressure: 29.56"   Gusts: NA
Location:  77.3°N, 103°E
Report Text: ENSB 242050Z 14021KT 9999 FEW025 SCT050 BKN080 05/M00 Q1001 RMK WIND 1400FT 11030KT
Loading
Personal Weather Stations






























Interactive Weather Map
Tropical Storm Tracking
New forecast layout! Learn more

10-Day Weather Forecast

Advertisements
Track Severe Weather on mobile